createdAt,value
2023-08-14T00:00:56.161Z,21.95
2023-08-14T00:03:39.224Z,21.85
2023-08-14T00:06:09.318Z,21.82
2023-08-14T00:08:39.445Z,21.75
2023-08-14T00:11:09.096Z,21.70
2023-08-14T00:13:57.670Z,21.75
2023-08-14T00:16:27.504Z,21.77
2023-08-14T00:18:56.812Z,21.81
2023-08-14T00:21:26.893Z,21.76
2023-08-14T00:23:56.051Z,21.59
2023-08-14T00:26:25.308Z,21.51
2023-08-14T00:28:55.259Z,21.43
2023-08-14T00:31:24.491Z,21.39
2023-08-14T00:33:54.128Z,21.34
2023-08-14T00:36:23.412Z,21.29
2023-08-14T00:38:53.352Z,21.29
2023-08-14T00:41:23.467Z,21.24
2023-08-14T00:43:54.926Z,21.24
2023-08-14T00:46:28.264Z,21.21
2023-08-14T00:48:59.599Z,21.19
2023-08-14T00:51:29.435Z,21.17
2023-08-14T00:53:59.694Z,21.16
2023-08-14T00:56:30.943Z,21.15
2023-08-14T00:59:01.008Z,21.10
2023-08-14T01:01:30.102Z,21.03
2023-08-14T01:04:01.541Z,20.98
2023-08-14T01:06:30.996Z,20.92
2023-08-14T01:09:00.624Z,20.91
2023-08-14T01:11:35.651Z,20.85
2023-08-14T01:14:29.577Z,20.78
2023-08-14T01:17:07.620Z,20.78
2023-08-14T01:19:45.485Z,20.90
2023-08-14T01:22:57.370Z,20.98
2023-08-14T01:25:33.403Z,20.94
2023-08-14T01:28:04.624Z,20.93
2023-08-14T01:30:35.061Z,20.92
2023-08-14T01:33:05.692Z,20.97
2023-08-14T01:35:48.196Z,20.90
2023-08-14T01:39:03.020Z,20.77
2023-08-14T01:42:12.680Z,20.63
2023-08-14T01:44:44.329Z,20.49
2023-08-14T01:47:18.643Z,20.48
2023-08-14T01:49:51.601Z,20.46
2023-08-14T01:52:21.887Z,20.41
2023-08-14T01:54:52.412Z,20.37
2023-08-14T01:57:22.331Z,20.33
2023-08-14T01:59:51.597Z,20.34
2023-08-14T02:02:21.582Z,20.37
2023-08-14T02:04:54.150Z,20.40
2023-08-14T02:07:24.952Z,20.40
2023-08-14T02:09:54.119Z,20.36
2023-08-14T02:12:24.970Z,20.36
2023-08-14T02:14:55.793Z,20.35
2023-08-14T02:17:25.279Z,20.35
2023-08-14T02:19:56.620Z,20.29
2023-08-14T02:22:25.856Z,20.22
2023-08-14T02:24:55.885Z,20.20
2023-08-14T02:27:25.206Z,20.22
2023-08-14T02:29:55.034Z,20.22
2023-08-14T02:32:25.122Z,20.20
2023-08-14T02:34:55.097Z,20.20
2023-08-14T02:37:26.337Z,20.18
2023-08-14T02:39:57.939Z,20.16
2023-08-14T02:42:28.473Z,20.18
2023-08-14T02:44:59.731Z,20.21
2023-08-14T02:47:28.859Z,20.23
2023-08-14T02:49:58.672Z,20.10
2023-08-14T02:52:28.300Z,19.92
2023-08-14T02:54:58.129Z,19.79
2023-08-14T02:57:28.154Z,19.68
2023-08-14T02:59:59.187Z,19.63
2023-08-14T03:02:29.676Z,19.63
2023-08-14T03:04:59.788Z,19.61
2023-08-14T03:07:29.055Z,19.56
2023-08-14T03:09:58.361Z,19.51
2023-08-14T03:12:27.575Z,19.47
2023-08-14T03:14:57.117Z,19.45
2023-08-14T03:17:26.941Z,19.42
2023-08-14T03:19:56.700Z,19.38
2023-08-14T03:22:26.385Z,19.41
2023-08-14T03:24:56.344Z,19.40
2023-08-14T03:27:26.650Z,19.37
2023-08-14T03:29:56.470Z,19.34
2023-08-14T03:32:26.364Z,19.31
2023-08-14T03:34:56.714Z,19.29
2023-08-14T03:37:26.242Z,19.33
2023-08-14T03:39:57.161Z,19.35
2023-08-14T03:42:26.834Z,19.37
2023-08-14T03:44:56.064Z,19.36
2023-08-14T03:47:25.515Z,19.29
2023-08-14T03:49:54.779Z,19.22
2023-08-14T03:52:24.552Z,19.22
2023-08-14T03:54:54.583Z,19.23
2023-08-14T03:57:25.500Z,19.26
2023-08-14T03:59:54.666Z,19.32
2023-08-14T04:02:24.438Z,19.38
2023-08-14T04:04:53.640Z,19.45
2023-08-14T04:07:22.945Z,19.51
2023-08-14T04:09:52.693Z,19.54
2023-08-14T04:12:22.867Z,19.55
2023-08-14T04:14:53.884Z,19.53
2023-08-14T04:17:23.246Z,19.54
2023-08-14T04:19:52.086Z,19.58
2023-08-14T04:22:21.948Z,19.59
2023-08-14T04:24:51.368Z,19.57
2023-08-14T04:27:20.903Z,19.53
2023-08-14T04:29:51.509Z,19.38
2023-08-14T04:32:21.205Z,19.21
2023-08-14T04:34:51.107Z,19.17
2023-08-14T04:37:21.877Z,19.21
2023-08-14T04:39:52.311Z,19.25
2023-08-14T04:42:22.623Z,19.26
2023-08-14T04:44:52.554Z,19.16
2023-08-14T04:47:21.588Z,19.04
2023-08-14T04:49:52.187Z,18.93
2023-08-14T04:52:24.226Z,18.85
2023-08-14T04:54:54.751Z,18.80
2023-08-14T04:57:24.301Z,18.80
2023-08-14T04:59:53.813Z,18.82
2023-08-14T05:02:23.639Z,18.85
2023-08-14T05:04:53.944Z,18.89
2023-08-14T05:07:26.977Z,18.96
2023-08-14T05:09:57.373Z,19.03
2023-08-14T05:12:27.124Z,19.16
2023-08-14T05:14:56.532Z,19.23
2023-08-14T05:17:26.658Z,19.28
2023-08-14T05:19:56.395Z,19.34
2023-08-14T05:22:25.716Z,19.40
2023-08-14T05:24:55.387Z,19.47
2023-08-14T05:27:26.959Z,19.55
2023-08-14T05:29:59.089Z,19.65
2023-08-14T05:32:29.189Z,19.76
2023-08-14T05:34:58.844Z,19.85
2023-08-14T05:37:28.513Z,19.91
2023-08-14T05:39:57.967Z,19.96
2023-08-14T05:42:27.537Z,20.03
2023-08-14T05:44:56.825Z,20.08
2023-08-14T05:47:26.796Z,20.21
2023-08-14T05:49:57.050Z,20.31
2023-08-14T05:52:27.058Z,20.39
2023-08-14T05:54:59.336Z,20.55
2023-08-14T05:57:30.621Z,20.64
2023-08-14T06:00:00.801Z,20.74
2023-08-14T06:02:30.322Z,20.84
2023-08-14T06:05:00.994Z,20.92
2023-08-14T06:07:31.142Z,21.04
2023-08-14T06:10:01.350Z,21.16
2023-08-14T06:12:30.929Z,21.34
2023-08-14T06:15:00.635Z,21.53
2023-08-14T06:17:32.665Z,21.66
2023-08-14T06:20:02.742Z,21.82
2023-08-14T06:22:32.615Z,21.97
2023-08-14T06:25:02.741Z,22.08
2023-08-14T06:27:32.780Z,22.22
2023-08-14T06:30:02.554Z,22.31
2023-08-14T06:32:32.175Z,22.38
2023-08-14T06:35:02.107Z,22.53
2023-08-14T06:37:31.944Z,22.71
2023-08-14T06:40:01.496Z,22.86
2023-08-14T06:42:30.772Z,23.00
2023-08-14T06:45:00.173Z,23.14
2023-08-14T06:47:30.414Z,23.39
2023-08-14T06:49:59.777Z,23.72
2023-08-14T06:52:29.313Z,24.25
2023-08-14T06:54:58.930Z,24.86
2023-08-14T06:57:28.505Z,25.49
2023-08-14T06:59:58.520Z,26.13
2023-08-14T07:02:28.441Z,26.71
2023-08-14T07:04:58.593Z,27.28
2023-08-14T07:07:28.278Z,27.80
2023-08-14T07:09:58.468Z,28.25
2023-08-14T07:12:29.062Z,28.76
2023-08-14T07:14:58.932Z,29.28
2023-08-14T07:17:29.398Z,29.83
2023-08-14T07:19:59.038Z,30.41
2023-08-14T07:22:28.971Z,30.89
2023-08-14T07:24:59.294Z,31.21
2023-08-14T07:27:29.149Z,31.60
2023-08-14T07:30:00.564Z,31.88
2023-08-14T07:32:30.568Z,32.22
2023-08-14T07:35:00.259Z,32.59
2023-08-14T07:37:29.681Z,32.98
2023-08-14T07:40:00.237Z,33.18
2023-08-14T07:42:30.718Z,33.48
2023-08-14T07:45:00.560Z,33.84
2023-08-14T07:47:29.627Z,34.09
2023-08-14T07:49:59.244Z,34.29
2023-08-14T07:52:32.164Z,34.55
2023-08-14T07:55:01.823Z,34.96
2023-08-14T07:57:31.644Z,35.28
2023-08-14T08:00:00.923Z,35.50
2023-08-14T08:02:30.269Z,35.73
2023-08-14T08:04:59.865Z,35.92
2023-08-14T08:09:59.784Z,36.47
2023-08-14T08:12:29.148Z,36.82
2023-08-14T08:14:58.870Z,37.21
2023-08-14T08:17:28.396Z,37.47
2023-08-14T08:19:58.938Z,37.68
2023-08-14T08:22:28.959Z,38.05
2023-08-14T08:24:58.697Z,38.37
2023-08-14T08:27:27.786Z,38.73
2023-08-14T08:29:56.805Z,39.15
2023-08-14T08:32:26.965Z,39.44
2023-08-14T08:34:58.218Z,39.78
2023-08-14T08:37:27.743Z,40.03
2023-08-14T08:39:57.126Z,40.15
2023-08-14T08:42:28.042Z,40.41
2023-08-14T08:45:04.037Z,40.56
2023-08-14T08:47:40.192Z,40.82
2023-08-14T08:50:11.643Z,41.10
2023-08-14T08:52:41.691Z,41.31
2023-08-14T08:55:11.043Z,41.65
2023-08-14T08:57:41.479Z,41.96
2023-08-14T09:00:11.765Z,42.06
2023-08-14T09:02:41.525Z,42.33
2023-08-14T09:05:11.199Z,42.57
2023-08-14T09:07:40.312Z,42.80
2023-08-14T09:10:10.445Z,42.99
2023-08-14T09:12:40.806Z,43.19
2023-08-14T09:15:11.214Z,43.38
2023-08-14T09:17:40.734Z,43.63
2023-08-14T09:20:28.241Z,43.95
2023-08-14T09:23:00.616Z,44.30
2023-08-14T09:25:30.132Z,44.48
2023-08-14T09:28:00.507Z,44.43
2023-08-14T09:30:30.607Z,44.47
2023-08-14T09:33:00.590Z,44.48
2023-08-14T09:35:30.414Z,44.52
2023-08-14T09:38:00.809Z,44.68
2023-08-14T09:40:30.886Z,44.93
2023-08-14T09:43:01.180Z,45.31
2023-08-14T09:45:31.128Z,45.46
2023-08-14T09:48:07.361Z,45.68
2023-08-14T09:50:37.608Z,45.90
2023-08-14T09:53:07.339Z,46.06
2023-08-14T09:55:37.729Z,46.07
2023-08-14T09:58:13.706Z,46.21
2023-08-14T10:00:43.517Z,46.32
2023-08-14T10:03:14.112Z,46.45
2023-08-14T10:05:44.488Z,46.71
2023-08-14T10:08:16.094Z,47.00
2023-08-14T10:10:56.115Z,47.12
2023-08-14T10:13:42.739Z,47.01
2023-08-14T10:16:19.054Z,46.94
2023-08-14T10:18:50.442Z,47.18
2023-08-14T10:21:21.079Z,47.33
2023-08-14T10:23:54.305Z,47.33
2023-08-14T10:26:27.390Z,47.47
2023-08-14T10:28:59.937Z,47.67
2023-08-14T10:31:31.589Z,47.93
2023-08-14T10:34:03.391Z,48.21
2023-08-14T10:36:39.275Z,48.22
2023-08-14T10:39:18.900Z,48.23
2023-08-14T10:41:49.234Z,48.14
2023-08-14T10:44:19.243Z,48.09
2023-08-14T10:46:48.766Z,48.24
2023-08-14T10:49:18.575Z,48.42
2023-08-14T10:51:49.624Z,48.56
2023-08-14T10:54:19.558Z,48.86
2023-08-14T10:56:50.907Z,48.93
2023-08-14T10:59:28.305Z,48.67
2023-08-14T11:02:17.885Z,48.78
2023-08-14T11:05:13.987Z,48.60
2023-08-14T11:07:58.601Z,48.34
2023-08-14T11:10:28.768Z,48.24
2023-08-14T11:12:58.956Z,48.36
2023-08-14T11:15:31.490Z,48.80
2023-08-14T11:18:02.118Z,48.92
2023-08-14T11:20:32.226Z,49.01
2023-08-14T11:23:02.485Z,49.24
2023-08-14T11:25:36.313Z,49.24
2023-08-14T11:28:08.012Z,49.22
2023-08-14T11:30:38.909Z,49.10
2023-08-14T11:33:09.490Z,49.20
2023-08-14T11:35:42.178Z,49.34
2023-08-14T11:40:50.144Z,49.54
2023-08-14T11:43:20.434Z,49.46
2023-08-14T11:45:51.340Z,49.68
2023-08-14T11:48:21.164Z,49.78
2023-08-14T11:50:52.626Z,49.73
2023-08-14T11:53:23.828Z,49.79
2023-08-14T11:55:53.878Z,49.89
2023-08-14T11:58:25.081Z,49.78
2023-08-14T12:00:58.221Z,49.64
2023-08-14T12:03:28.694Z,49.59
2023-08-14T12:06:05.775Z,49.60
2023-08-14T12:08:37.245Z,49.72
2023-08-14T12:11:13.358Z,49.43
2023-08-14T12:13:55.302Z,49.29
2023-08-14T12:16:28.853Z,49.58
2023-08-14T12:19:04.249Z,49.54
2023-08-14T12:21:35.818Z,49.67
2023-08-14T12:24:08.896Z,49.60
2023-08-14T12:26:42.647Z,49.57
2023-08-14T12:29:17.605Z,49.56
2023-08-14T12:31:48.754Z,49.69
2023-08-14T12:34:24.447Z,50.02
2023-08-14T12:36:56.003Z,50.09
2023-08-14T12:39:25.823Z,50.10
2023-08-14T12:42:01.695Z,50.02
2023-08-14T12:44:32.943Z,49.94
2023-08-14T12:47:03.648Z,49.77
2023-08-14T12:49:37.981Z,49.62
2023-08-14T12:52:10.628Z,49.46
2023-08-14T12:54:41.735Z,49.45
2023-08-14T12:57:15.801Z,49.21
2023-08-14T12:59:50.699Z,48.69
2023-08-14T13:04:58.996Z,48.68
2023-08-14T13:07:31.787Z,48.35
2023-08-14T13:10:02.434Z,48.09
2023-08-14T13:12:34.234Z,47.83
2023-08-14T13:15:05.990Z,47.88
2023-08-14T13:17:36.863Z,47.99
2023-08-14T13:20:10.050Z,48.16
2023-08-14T13:22:42.104Z,48.10
2023-08-14T13:25:13.263Z,48.29
2023-08-14T13:30:20.303Z,48.23
2023-08-14T13:32:51.887Z,48.20
2023-08-14T13:35:21.669Z,48.21
2023-08-14T13:37:53.590Z,48.44
2023-08-14T13:40:25.372Z,48.74
2023-08-14T13:42:57.673Z,48.78
2023-08-14T13:45:29.176Z,48.60
2023-08-14T13:48:01.674Z,48.34
2023-08-14T13:50:35.832Z,48.22
2023-08-14T13:53:07.573Z,48.39
2023-08-14T13:55:37.508Z,48.13
2023-08-14T13:58:08.439Z,47.83
2023-08-14T14:00:41.025Z,47.61
2023-08-14T14:03:13.123Z,47.25
2023-08-14T14:05:44.574Z,47.11
2023-08-14T14:08:16.011Z,47.17
2023-08-14T14:10:48.328Z,47.10
2023-08-14T14:13:19.129Z,47.03
2023-08-14T14:15:49.821Z,46.91
2023-08-14T14:18:20.142Z,46.95
2023-08-14T14:20:51.647Z,46.93
2023-08-14T14:23:23.008Z,47.04
2023-08-14T14:25:53.462Z,47.12
2023-08-14T14:28:25.028Z,47.08
2023-08-14T14:30:58.126Z,46.92
2023-08-14T14:33:29.428Z,46.84
2023-08-14T14:36:02.308Z,46.82
2023-08-14T14:38:35.288Z,46.73
2023-08-14T14:41:08.124Z,46.60
2023-08-14T14:43:39.750Z,46.58
2023-08-14T14:46:11.337Z,46.69
2023-08-14T14:48:42.116Z,46.69
2023-08-14T14:51:12.542Z,46.59
2023-08-14T14:53:44.072Z,46.58
2023-08-14T14:56:16.508Z,46.32
2023-08-14T14:58:48.128Z,45.96
2023-08-14T15:01:20.295Z,45.90
2023-08-14T15:03:53.363Z,45.96
2023-08-14T15:06:26.331Z,45.82
2023-08-14T15:08:59.006Z,45.73
2023-08-14T15:11:31.086Z,45.78
2023-08-14T15:14:02.199Z,45.67
2023-08-14T15:16:33.742Z,45.55
2023-08-14T15:19:05.048Z,45.36
2023-08-14T15:21:36.353Z,45.20
2023-08-14T15:24:08.712Z,45.02
2023-08-14T15:26:40.818Z,44.73
2023-08-14T15:29:11.763Z,44.43
2023-08-14T15:31:42.101Z,44.21
2023-08-14T15:34:14.076Z,43.77
2023-08-14T15:36:45.062Z,43.11
2023-08-14T15:39:15.771Z,42.54
2023-08-14T15:41:46.475Z,42.17
2023-08-14T15:44:16.753Z,42.06
2023-08-14T15:46:48.366Z,41.98
2023-08-14T15:49:19.437Z,41.85
2023-08-14T15:51:50.780Z,41.61
2023-08-14T15:54:22.760Z,41.42
2023-08-14T15:56:55.538Z,41.30
2023-08-14T15:59:30.272Z,41.19
2023-08-14T16:02:01.078Z,41.08
2023-08-14T16:04:32.483Z,41.01
2023-08-14T16:07:04.576Z,40.94
2023-08-14T16:09:36.857Z,40.89
2023-08-14T16:12:09.974Z,40.78
2023-08-14T16:14:41.886Z,40.67
2023-08-14T16:17:14.958Z,40.47
2023-08-14T16:19:45.091Z,40.33
2023-08-14T16:22:15.457Z,40.23
2023-08-14T16:24:46.105Z,40.18
2023-08-14T16:27:16.373Z,40.16
2023-08-14T16:29:48.093Z,40.11
2023-08-14T16:32:19.172Z,40.02
2023-08-14T16:34:50.120Z,39.98
2023-08-14T16:37:20.035Z,39.90
2023-08-14T16:39:50.931Z,39.72
2023-08-14T16:42:22.699Z,39.55
2023-08-14T16:44:54.579Z,39.21
2023-08-14T16:47:27.165Z,38.83
2023-08-14T16:50:00.670Z,38.44
2023-08-14T16:52:34.027Z,37.86
2023-08-14T16:55:04.882Z,37.42
2023-08-14T16:57:35.800Z,37.16
2023-08-14T17:00:07.625Z,36.96
2023-08-14T17:02:39.635Z,36.78
2023-08-14T17:05:10.473Z,36.56
2023-08-14T17:07:43.116Z,36.31
2023-08-14T17:10:13.639Z,36.09
2023-08-14T17:12:43.964Z,35.87
2023-08-14T17:15:13.806Z,35.67
2023-08-14T17:17:43.842Z,35.59
2023-08-14T17:20:17.153Z,35.50
2023-08-14T17:22:48.452Z,35.36
2023-08-14T17:25:18.317Z,35.22
2023-08-14T17:27:48.985Z,35.07
2023-08-14T17:30:18.524Z,34.93
2023-08-14T17:32:52.746Z,34.72
2023-08-14T17:35:24.172Z,34.50
2023-08-14T17:37:53.856Z,34.42
2023-08-14T17:40:25.036Z,34.32
2023-08-14T17:42:57.074Z,34.20
2023-08-14T17:45:27.244Z,34.07
2023-08-14T17:47:59.521Z,34.00
2023-08-14T17:50:31.623Z,33.93
2023-08-14T17:53:03.549Z,33.89
2023-08-14T17:55:33.645Z,33.85
2023-08-14T17:58:03.282Z,33.84
2023-08-14T18:00:33.641Z,33.76
2023-08-14T18:03:05.740Z,33.66
2023-08-14T18:05:36.412Z,33.47
2023-08-14T18:08:08.569Z,33.30
2023-08-14T18:10:39.254Z,33.22
2023-08-14T18:13:09.507Z,33.20
2023-08-14T18:15:41.196Z,33.18
2023-08-14T18:18:12.905Z,33.08
2023-08-14T18:20:46.646Z,32.93
2023-08-14T18:23:17.630Z,32.66
2023-08-14T18:25:47.577Z,32.50
2023-08-14T18:28:18.594Z,32.39
2023-08-14T18:30:50.598Z,32.31
2023-08-14T18:33:22.013Z,32.26
2023-08-14T18:35:52.263Z,32.20
2023-08-14T18:38:23.017Z,32.08
2023-08-14T18:40:53.738Z,31.94
2023-08-14T18:43:23.195Z,31.87
2023-08-14T18:45:55.681Z,31.81
2023-08-14T18:48:25.815Z,31.76
2023-08-14T18:50:57.088Z,31.69
2023-08-14T18:53:30.422Z,31.50
2023-08-14T18:56:01.961Z,31.33
2023-08-14T18:58:33.912Z,31.22
2023-08-14T19:01:05.656Z,31.14
2023-08-14T19:03:35.941Z,31.09
2023-08-14T19:06:06.819Z,30.98
2023-08-14T19:08:37.891Z,30.90
2023-08-14T19:11:09.448Z,30.78
2023-08-14T19:13:39.635Z,30.72
2023-08-14T19:16:09.211Z,30.65
2023-08-14T19:18:41.532Z,30.55
2023-08-14T19:21:14.356Z,30.42
2023-08-14T19:23:48.017Z,30.33
2023-08-14T19:26:27.620Z,30.24
2023-08-14T19:28:59.141Z,29.97
2023-08-14T19:31:29.888Z,29.78
2023-08-14T19:34:03.418Z,29.62
2023-08-14T19:36:33.816Z,29.51
2023-08-14T19:39:03.354Z,29.50
2023-08-14T19:41:33.275Z,29.56
2023-08-14T19:44:06.499Z,29.55
2023-08-14T19:46:37.688Z,29.42
2023-08-14T19:49:07.129Z,29.35
2023-08-14T19:51:37.792Z,29.18
2023-08-14T19:54:09.169Z,28.98
2023-08-14T19:56:38.714Z,28.67
2023-08-14T19:59:09.485Z,28.48
2023-08-14T20:01:39.410Z,28.30
2023-08-14T20:04:10.177Z,28.20
2023-08-14T20:06:44.055Z,28.14
2023-08-14T20:09:14.390Z,28.08
2023-08-14T20:11:46.878Z,28.06
2023-08-14T20:14:18.420Z,28.06
2023-08-14T20:16:49.005Z,28.07
2023-08-14T20:19:22.773Z,28.05
2023-08-14T20:21:53.624Z,28.03
2023-08-14T20:24:23.794Z,27.99
2023-08-14T20:26:55.525Z,27.90
2023-08-14T20:29:27.566Z,27.72
2023-08-14T20:31:57.449Z,27.62
2023-08-14T20:34:29.237Z,27.62
2023-08-14T20:36:59.770Z,27.64
2023-08-14T20:39:30.530Z,27.65
2023-08-14T20:42:00.082Z,27.60
2023-08-14T20:44:30.961Z,27.54
2023-08-14T20:47:03.675Z,27.57
2023-08-14T20:49:34.537Z,27.49
2023-08-14T20:52:04.365Z,27.41
2023-08-14T20:54:34.572Z,27.42
2023-08-14T20:57:05.143Z,27.44
2023-08-14T20:59:38.328Z,27.43
2023-08-14T21:02:09.399Z,27.34
2023-08-14T21:04:39.805Z,27.14
2023-08-14T21:07:10.046Z,26.98
2023-08-14T21:09:39.723Z,26.78
2023-08-14T21:12:11.897Z,26.57
2023-08-14T21:14:42.418Z,26.48
2023-08-14T21:17:12.532Z,26.40
2023-08-14T21:19:41.855Z,26.28
2023-08-14T21:22:11.310Z,26.18
2023-08-14T21:24:41.371Z,26.07
2023-08-14T21:27:11.373Z,25.98
2023-08-14T21:29:41.035Z,25.82
2023-08-14T21:32:11.237Z,25.84
2023-08-14T21:34:42.192Z,25.99
2023-08-14T21:37:12.367Z,26.12
2023-08-14T21:39:43.148Z,26.12
2023-08-14T21:42:13.970Z,26.12
2023-08-14T21:44:44.280Z,26.12
2023-08-14T21:47:13.874Z,26.14
2023-08-14T21:49:45.620Z,26.13
2023-08-14T21:52:15.754Z,26.10
2023-08-14T21:54:45.843Z,26.04
2023-08-14T21:57:18.078Z,26.02
2023-08-14T21:59:49.649Z,25.99
2023-08-14T22:02:20.001Z,25.94
2023-08-14T22:04:50.376Z,25.85
2023-08-14T22:07:21.050Z,25.84
2023-08-14T22:09:52.428Z,25.92
2023-08-14T22:12:23.237Z,26.00
2023-08-14T22:14:53.749Z,25.95
2023-08-14T22:17:23.668Z,25.80
2023-08-14T22:19:53.345Z,25.67
2023-08-14T22:22:23.233Z,25.60
2023-08-14T22:24:56.309Z,25.52
2023-08-14T22:27:28.110Z,25.43
2023-08-14T22:29:59.960Z,25.42
2023-08-14T22:32:31.147Z,25.45
2023-08-14T22:35:01.332Z,25.47
2023-08-14T22:37:34.551Z,25.43
2023-08-14T22:40:06.049Z,25.37
2023-08-14T22:42:40.952Z,25.33
2023-08-14T22:45:12.339Z,25.31
2023-08-14T22:47:42.933Z,25.26
2023-08-14T22:50:13.519Z,25.21
2023-08-14T22:52:43.667Z,25.17
2023-08-14T22:55:13.349Z,25.08
2023-08-14T22:57:45.956Z,25.04
2023-08-14T23:00:18.288Z,24.97
2023-08-14T23:02:49.706Z,24.86
2023-08-14T23:05:21.238Z,24.84
2023-08-14T23:07:53.083Z,24.83
2023-08-14T23:10:24.893Z,24.71
2023-08-14T23:12:55.710Z,24.58
2023-08-14T23:15:25.811Z,24.48
2023-08-14T23:17:55.798Z,24.42
2023-08-14T23:20:26.321Z,24.42
2023-08-14T23:22:55.931Z,24.40
2023-08-14T23:25:26.139Z,24.40
2023-08-14T23:27:56.784Z,24.37
2023-08-14T23:30:27.235Z,24.32
2023-08-14T23:32:56.614Z,24.36
2023-08-14T23:35:26.760Z,24.44
2023-08-14T23:37:57.025Z,24.45
2023-08-14T23:40:26.681Z,24.37
2023-08-14T23:42:56.361Z,24.32
2023-08-14T23:45:25.737Z,24.29
2023-08-14T23:47:55.070Z,24.27
2023-08-14T23:50:24.406Z,24.20
2023-08-14T23:52:54.254Z,24.12
2023-08-14T23:55:24.083Z,24.07
2023-08-14T23:57:53.728Z,24.05
